Audubon, Minnesota
Current Conditions -  °F | °C
As of 2:15 AM on Thursday 29 Jan 2015 (Local Time) from KDTL Reporting Station
Overcast Overcast  
Wind Chill: -14°   Ceiling: 400
Heat Index: -5°   Visibility: 10mi
Dew Point: -5°   Wind: 23mph
Humidity: 100%   Direction: 330°NNW
Pressure: 30.07"   Gusts: 29mph
Location:  46.86°N, 95.98°W
Report Text: KDTL 290815Z AUTO 33020G25KT 10SM OVC004 M05/M05 A3007 RMK AO2
Loading
Personal Weather Stations






























Interactive Weather Map New forecast layout! Learn more

10-Day Weather Forecast

Advertisements
Track Severe Weather on mobile